Eddington, Pennsylvania
Current Conditions -  °F | °C
As of 7:54 AM on Friday 24 Oct 2014 (Local Time) from KPNE Reporting Station
Broken Clouds Broken Clouds  
Wind Chill: 56°   Ceiling: 3300
Heat Index: 56°   Visibility: 10mi
Dew Point: 43°   Wind: 7mph
Humidity: 62%   Direction: 320°NW
Pressure: 29.86"   Gusts: NA
Location:  40.1068°N, 74.9379°W
Report Text: KPNE 241154Z 32006KT 10SM BKN033 13/06 A2986 RMK AO2 SLP109 70003 T01330061 10133 20117 53002 $
Loading
Personal Weather Stations






























Interactive Weather Map
Tropical Storm Tracking
New forecast layout! Learn more

10-Day Weather Forecast

Advertisements
Track Severe Weather on mobile